createdAt,value
2017-11-27T00:00:26.313Z,1018.62
2017-11-27T00:01:35.157Z,1018.62
2017-11-27T00:02:43.994Z,1018.61
2017-11-27T00:03:52.838Z,1018.67
2017-11-27T00:05:01.677Z,1018.69
2017-11-27T00:06:10.519Z,1018.61
2017-11-27T00:07:19.647Z,1018.66
2017-11-27T00:08:28.487Z,1018.68
2017-11-27T00:09:37.329Z,1018.64
2017-11-27T00:10:46.167Z,1018.66
2017-11-27T00:11:55.589Z,1018.74
2017-11-27T00:13:04.431Z,1018.61
2017-11-27T00:14:13.272Z,1018.64
2017-11-27T00:15:22.398Z,1018.66
2017-11-27T00:16:31.532Z,1018.67
2017-11-27T00:17:40.671Z,1018.66
2017-11-27T00:18:49.510Z,1018.61
2017-11-27T00:19:58.352Z,1018.64
2017-11-27T00:21:07.193Z,1018.65
2017-11-27T00:22:16.032Z,1018.64
2017-11-27T00:23:25.203Z,1018.63
2017-11-27T00:24:34.046Z,1018.6
2017-11-27T00:25:42.887Z,1018.61
2017-11-27T00:26:52.007Z,1018.62
2017-11-27T00:28:00.844Z,1018.61
2017-11-27T00:29:09.987Z,1018.62
2017-11-27T00:30:19.115Z,1018.62
2017-11-27T00:31:28.241Z,1018.66
2017-11-27T00:32:37.080Z,1018.64
2017-11-27T00:33:46.214Z,1018.61
2017-11-27T00:34:55.499Z,1018.61
2017-11-27T00:36:04.355Z,1018.55
2017-11-27T00:37:13.185Z,1018.58
2017-11-27T00:38:22.027Z,1018.57
2017-11-27T00:39:30.867Z,1018.57
2017-11-27T00:40:39.858Z,1018.55
2017-11-27T00:41:48.700Z,1018.56
2017-11-27T00:42:57.544Z,1018.58
2017-11-27T00:44:06.385Z,1018.55
2017-11-27T00:45:15.226Z,1018.55
2017-11-27T00:46:24.250Z,1018.54
2017-11-27T00:47:33.060Z,1018.55
2017-11-27T00:48:41.901Z,1018.58
2017-11-27T00:49:50.741Z,1018.57
2017-11-27T00:50:59.583Z,1018.6
2017-11-27T00:52:08.573Z,1018.57
2017-11-27T00:53:17.416Z,1018.55
2017-11-27T00:54:26.255Z,1018.53
2017-11-27T00:55:35.100Z,1018.55
2017-11-27T00:56:43.940Z,1018.52
2017-11-27T00:57:52.781Z,1018.55
2017-11-27T00:59:01.622Z,1018.54
2017-11-27T01:00:10.464Z,1018.53
2017-11-27T01:01:19.307Z,1018.58
2017-11-27T01:02:28.148Z,1018.49
2017-11-27T01:03:36.994Z,1018.57
2017-11-27T01:04:45.839Z,1018.58
2017-11-27T01:05:54.678Z,1018.55
2017-11-27T01:07:03.521Z,1018.57
2017-11-27T01:08:12.367Z,1018.54
2017-11-27T01:09:21.634Z,1018.54
2017-11-27T01:10:30.754Z,1018.58
2017-11-27T01:11:39.591Z,1018.58
2017-11-27T01:12:48.712Z,1018.56
2017-11-27T01:13:57.555Z,1018.54
2017-11-27T01:15:06.999Z,1018.5
2017-11-27T01:16:15.844Z,1018.52
2017-11-27T01:17:24.684Z,1018.52
2017-11-27T01:18:33.525Z,1018.54
2017-11-27T01:19:42.363Z,1018.52
2017-11-27T01:20:51.351Z,1018.52
2017-11-27T01:22:00.191Z,1018.5
2017-11-27T01:23:09.030Z,1018.5
2017-11-27T01:24:17.872Z,1018.44
2017-11-27T01:25:26.715Z,1018.47
2017-11-27T01:26:35.705Z,1018.44
2017-11-27T01:27:45.108Z,1018.44
2017-11-27T01:28:53.948Z,1018.45
2017-11-27T01:30:02.791Z,1018.41
2017-11-27T01:31:11.632Z,1018.42
2017-11-27T01:32:20.474Z,1018.46
2017-11-27T01:33:29.314Z,1018.48
2017-11-27T01:34:38.161Z,1018.44
2017-11-27T01:35:46.997Z,1018.43
2017-11-27T01:36:56.115Z,1018.45
2017-11-27T01:38:05.052Z,1018.45
2017-11-27T01:39:14.187Z,1018.45
2017-11-27T01:40:23.318Z,1018.47
2017-11-27T01:41:32.159Z,1018.45
2017-11-27T01:42:40.996Z,1018.41
2017-11-27T01:43:49.908Z,1018.45
2017-11-27T01:44:58.729Z,1018.38
2017-11-27T01:46:07.565Z,1018.42
2017-11-27T01:47:16.405Z,1018.44
2017-11-27T01:48:25.247Z,1018.46
2017-11-27T01:49:34.385Z,1018.44
2017-11-27T01:50:43.233Z,1018.4
2017-11-27T01:51:52.068Z,1018.47
2017-11-27T01:53:00.908Z,1018.53
2017-11-27T01:54:09.747Z,1018.47
2017-11-27T01:55:18.738Z,1018.44
2017-11-27T01:56:27.581Z,1018.43
2017-11-27T01:57:36.425Z,1018.44
2017-11-27T01:58:45.262Z,1018.43
2017-11-27T01:59:54.108Z,1018.43
2017-11-27T02:01:03.277Z,1018.41
2017-11-27T02:02:12.118Z,1018.38
2017-11-27T02:03:20.958Z,1018.45
2017-11-27T02:04:29.796Z,1018.41
2017-11-27T02:05:38.645Z,1018.43
2017-11-27T02:06:47.479Z,1018.45
2017-11-27T02:07:56.318Z,1018.45
2017-11-27T02:09:05.156Z,1018.43
2017-11-27T02:10:13.994Z,1018.46
2017-11-27T02:11:22.833Z,1018.42
2017-11-27T02:12:32.024Z,1018.39
2017-11-27T02:13:40.865Z,1018.43
2017-11-27T02:14:49.704Z,1018.39
2017-11-27T02:15:58.830Z,1018.38
2017-11-27T02:17:07.950Z,1018.35
2017-11-27T02:18:16.937Z,1018.36
2017-11-27T02:19:25.779Z,1018.35
2017-11-27T02:20:34.618Z,1018.38
2017-11-27T02:21:43.458Z,1018.36
2017-11-27T02:22:52.578Z,1018.33
2017-11-27T02:24:01.718Z,1018.22
2017-11-27T02:25:10.558Z,1018.3
2017-11-27T02:26:19.399Z,1018.3
2017-11-27T02:27:28.237Z,1018.29
2017-11-27T02:28:37.080Z,1018.3
2017-11-27T02:29:46.520Z,1018.25
2017-11-27T02:30:55.361Z,1018.24
2017-11-27T02:32:04.204Z,1018.28
2017-11-27T02:33:13.056Z,1018.23
2017-11-27T02:34:21.885Z,1018.23
2017-11-27T02:35:31.310Z,1018.23
2017-11-27T02:36:40.151Z,1018.23
2017-11-27T02:37:48.997Z,1018.17
2017-11-27T02:38:57.839Z,1018.23
2017-11-27T02:40:06.679Z,1018.2
2017-11-27T02:41:15.717Z,1018.19
2017-11-27T02:42:24.562Z,1018.2
2017-11-27T02:43:33.405Z,1018.18
2017-11-27T02:44:42.527Z,1018.19
2017-11-27T02:45:51.364Z,1018.15
2017-11-27T02:47:00.204Z,1018.13
2017-11-27T02:48:09.043Z,1018.12
2017-11-27T02:49:17.884Z,1018.07
2017-11-27T02:50:26.728Z,1018.13
2017-11-27T02:51:35.575Z,1018.08
2017-11-27T02:52:44.561Z,1018.03
2017-11-27T02:53:53.414Z,1018.03
2017-11-27T02:55:02.245Z,1018.08
2017-11-27T02:56:11.085Z,1018
2017-11-27T02:57:19.925Z,1018.04
2017-11-27T02:58:29.051Z,1018
2017-11-27T02:59:37.887Z,1017.95
2017-11-27T03:00:47.011Z,1018.01
2017-11-27T03:01:56.126Z,1017.93
2017-11-27T03:03:05.252Z,1017.95
2017-11-27T03:04:14.096Z,1017.89
2017-11-27T03:05:22.941Z,1017.86
2017-11-27T03:06:31.773Z,1017.94
2017-11-27T03:07:40.617Z,1017.92
2017-11-27T03:08:49.459Z,1017.87
2017-11-27T03:09:58.297Z,1017.78
2017-11-27T03:11:07.139Z,1017.85
2017-11-27T03:12:15.982Z,1017.82
2017-11-27T03:13:25.102Z,1017.85
2017-11-27T03:14:33.945Z,1017.77
2017-11-27T03:15:42.884Z,1017.8
2017-11-27T03:16:51.720Z,1017.89
2017-11-27T03:18:00.562Z,1017.87
2017-11-27T03:19:09.404Z,1017.88
2017-11-27T03:20:18.245Z,1017.83
2017-11-27T03:21:27.239Z,1017.84
2017-11-27T03:22:36.084Z,1017.84
2017-11-27T03:23:44.918Z,1017.81
2017-11-27T03:24:53.760Z,1017.8
2017-11-27T03:26:02.605Z,1017.77
2017-11-27T03:27:11.739Z,1017.77
2017-11-27T03:28:20.578Z,1017.81
2017-11-27T03:29:29.419Z,1017.77
2017-11-27T03:30:38.259Z,1017.8
2017-11-27T03:31:47.397Z,1017.77
2017-11-27T03:32:56.540Z,1017.73
2017-11-27T03:34:05.383Z,1017.7
2017-11-27T03:35:14.505Z,1017.73
2017-11-27T03:36:23.625Z,1017.73
2017-11-27T03:37:32.464Z,1017.76
2017-11-27T03:38:41.690Z,1017.72
2017-11-27T03:39:50.533Z,1017.73
2017-11-27T03:40:59.376Z,1017.73
2017-11-27T03:42:08.220Z,1017.69
2017-11-27T03:43:17.060Z,1017.66
2017-11-27T03:44:26.204Z,1017.6
2017-11-27T03:45:35.045Z,1017.66
2017-11-27T03:46:43.882Z,1017.6
2017-11-27T03:47:53.001Z,1017.56
2017-11-27T03:49:01.839Z,1017.55
2017-11-27T03:50:10.679Z,1017.58
2017-11-27T03:51:19.517Z,1017.48
2017-11-27T03:52:28.358Z,1017.5
2017-11-27T03:53:37.200Z,1017.44
2017-11-27T03:54:46.039Z,1017.45
2017-11-27T03:55:55.420Z,1017.45
2017-11-27T03:57:04.260Z,1017.45
2017-11-27T03:58:13.379Z,1017.48
2017-11-27T03:59:22.220Z,1017.51
2017-11-27T04:00:31.063Z,1017.42
2017-11-27T04:01:40.393Z,1017.41
2017-11-27T04:02:49.232Z,1017.36
2017-11-27T04:03:58.068Z,1017.35
2017-11-27T04:05:07.195Z,1017.45
2017-11-27T04:06:16.031Z,1017.33
2017-11-27T04:07:25.022Z,1017.34
2017-11-27T04:08:34.142Z,1017.28
2017-11-27T04:09:42.982Z,1017.28
2017-11-27T04:10:51.825Z,1017.2
2017-11-27T04:12:00.666Z,1017.24
2017-11-27T04:13:09.809Z,1017.17
2017-11-27T04:14:18.932Z,1017.17
2017-11-27T04:15:28.066Z,1017.08
2017-11-27T04:16:36.913Z,1017.07
2017-11-27T04:17:45.751Z,1017.12
2017-11-27T04:18:55.024Z,1017.02
2017-11-27T04:20:03.864Z,1016.99
2017-11-27T04:21:12.706Z,1017.04
2017-11-27T04:22:21.547Z,1017.01
2017-11-27T04:23:30.386Z,1017.01
2017-11-27T04:24:39.229Z,1017
2017-11-27T04:25:48.080Z,1017.02
2017-11-27T04:26:56.913Z,1016.97
2017-11-27T04:28:05.753Z,1016.94
2017-11-27T04:29:14.596Z,1016.93
2017-11-27T04:30:23.595Z,1016.88
2017-11-27T04:31:32.427Z,1016.87
2017-11-27T04:32:41.266Z,1016.89
2017-11-27T04:33:50.109Z,1016.87
2017-11-27T04:34:58.953Z,1016.79
2017-11-27T04:36:07.895Z,1016.77
2017-11-27T04:37:16.740Z,1016.8
2017-11-27T04:38:25.580Z,1016.8
2017-11-27T04:39:34.425Z,1016.72
2017-11-27T04:40:43.258Z,1016.74
2017-11-27T04:41:52.152Z,1016.74
2017-11-27T04:43:01.271Z,1016.65
2017-11-27T04:44:10.112Z,1016.76
2017-11-27T04:45:18.955Z,1016.63
2017-11-27T04:46:27.790Z,1016.66
2017-11-27T04:47:36.885Z,1016.67
2017-11-27T04:48:45.729Z,1016.68
2017-11-27T04:49:54.571Z,1016.64
2017-11-27T04:51:03.411Z,1016.6
2017-11-27T04:52:12.257Z,1016.6
2017-11-27T04:53:21.476Z,1016.64
2017-11-27T04:54:30.319Z,1016.56
2017-11-27T04:55:39.444Z,1016.6
2017-11-27T04:56:48.286Z,1016.63
2017-11-27T04:57:57.127Z,1016.63
2017-11-27T04:59:06.119Z,1016.59
2017-11-27T05:00:15.241Z,1016.6
2017-11-27T05:01:24.363Z,1016.58
2017-11-27T05:02:33.492Z,1016.6
2017-11-27T05:03:42.334Z,1016.56
2017-11-27T05:04:51.565Z,1016.52
2017-11-27T05:06:00.400Z,1016.47
2017-11-27T05:07:09.243Z,1016.42
2017-11-27T05:08:18.078Z,1016.43
2017-11-27T05:09:26.920Z,1016.38
2017-11-27T05:10:36.040Z,1016.38
2017-11-27T05:11:44.881Z,1016.42
2017-11-27T05:12:53.720Z,1016.42
2017-11-27T05:14:02.564Z,1016.4
2017-11-27T05:15:11.412Z,1016.41
2017-11-27T05:16:20.499Z,1016.39
2017-11-27T05:17:29.341Z,1016.32
2017-11-27T05:18:38.186Z,1016.34
2017-11-27T05:19:47.029Z,1016.31
2017-11-27T05:20:55.870Z,1016.29
2017-11-27T05:22:04.861Z,1016.22
2017-11-27T05:23:13.701Z,1016.2
2017-11-27T05:24:22.539Z,1016.1
2017-11-27T05:25:31.378Z,1016.09
2017-11-27T05:26:40.501Z,1016.13
2017-11-27T05:27:49.443Z,1016.12
2017-11-27T05:28:58.291Z,1016.08
2017-11-27T05:30:07.131Z,1016.07
2017-11-27T05:31:15.975Z,1015.99
2017-11-27T05:32:24.818Z,1016.02
2017-11-27T05:33:33.812Z,1015.98
2017-11-27T05:34:42.653Z,1015.95
2017-11-27T05:35:51.494Z,1016.03
2017-11-27T05:37:00.328Z,1015.97
2017-11-27T05:38:09.169Z,1015.99
2017-11-27T05:39:18.207Z,1015.95
2017-11-27T05:40:27.048Z,1016.01
2017-11-27T05:41:36.179Z,1015.93
2017-11-27T05:42:45.308Z,1015.91
2017-11-27T05:43:54.148Z,1015.9
2017-11-27T05:45:03.573Z,1015.84
2017-11-27T05:46:12.421Z,1015.79
2017-11-27T05:47:21.254Z,1015.85
2017-11-27T05:48:30.096Z,1015.84
2017-11-27T05:49:39.227Z,1015.81
2017-11-27T05:50:48.368Z,1015.79
2017-11-27T05:51:57.209Z,1015.76
2017-11-27T05:53:06.057Z,1015.75
2017-11-27T05:54:14.897Z,1015.73
2017-11-27T05:55:23.738Z,1015.74
2017-11-27T05:56:32.633Z,1015.72
2017-11-27T05:57:41.472Z,1015.72
2017-11-27T05:58:50.312Z,1015.78
2017-11-27T05:59:59.155Z,1015.79
2017-11-27T06:01:08.284Z,1015.75
2017-11-27T06:02:17.123Z,1015.72
2017-11-27T06:03:25.964Z,1015.58
2017-11-27T06:04:34.809Z,1015.74
2017-11-27T06:05:43.645Z,1015.71
2017-11-27T06:06:52.538Z,1015.74
2017-11-27T06:08:01.379Z,1015.63
2017-11-27T06:09:10.221Z,1015.68
2017-11-27T06:10:19.316Z,1015.61
2017-11-27T06:11:28.194Z,1015.59
2017-11-27T06:12:37.035Z,1015.55
2017-11-27T06:13:45.877Z,1015.51
2017-11-27T06:14:54.723Z,1015.48
2017-11-27T06:16:03.565Z,1015.52
2017-11-27T06:17:12.791Z,1015.48
2017-11-27T06:18:21.634Z,1015.48
2017-11-27T06:19:30.479Z,1015.53
2017-11-27T06:20:39.326Z,1015.48
2017-11-27T06:21:48.168Z,1015.49
2017-11-27T06:22:57.022Z,1015.42
2017-11-27T06:24:05.853Z,1015.43
2017-11-27T06:25:14.694Z,1015.43
2017-11-27T06:26:23.537Z,1015.39
2017-11-27T06:27:32.454Z,1015.47
2017-11-27T06:28:41.579Z,1015.36
2017-11-27T06:29:50.426Z,1015.31
2017-11-27T06:30:59.281Z,1015.35
2017-11-27T06:32:08.124Z,1015.35
2017-11-27T06:33:17.221Z,1015.34
2017-11-27T06:34:26.063Z,1015.33
2017-11-27T06:35:34.924Z,1015.24
2017-11-27T06:36:44.067Z,1015.3
2017-11-27T06:37:52.909Z,1015.26
2017-11-27T06:39:01.801Z,1015.17
2017-11-27T06:40:10.648Z,1015.21
2017-11-27T06:41:19.485Z,1015.13
2017-11-27T06:42:28.342Z,1015.14
2017-11-27T06:43:37.201Z,1015.13
2017-11-27T06:44:46.457Z,1015.19
2017-11-27T06:45:55.301Z,1015.1
2017-11-27T06:47:04.439Z,1015.12
2017-11-27T06:48:13.298Z,1015.03
2017-11-27T06:49:22.137Z,1015.03
2017-11-27T06:50:31.081Z,1015.01
2017-11-27T06:51:39.931Z,1015.03
2017-11-27T06:52:48.773Z,1015
2017-11-27T06:53:57.902Z,1014.99
2017-11-27T06:55:06.744Z,1014.95
2017-11-27T06:56:15.988Z,1014.95
2017-11-27T06:57:24.829Z,1014.92
2017-11-27T06:58:33.950Z,1014.82
2017-11-27T06:59:42.802Z,1014.81
2017-11-27T07:00:51.920Z,1014.84
2017-11-27T07:02:00.782Z,1014.81
2017-11-27T07:03:09.625Z,1014.7
2017-11-27T07:04:18.476Z,1014.8
2017-11-27T07:05:27.319Z,1014.82
2017-11-27T07:06:36.161Z,1014.79
2017-11-27T07:07:45.569Z,1014.83
2017-11-27T07:08:54.414Z,1014.82
2017-11-27T07:10:03.253Z,1014.81
2017-11-27T07:11:12.099Z,1014.68
2017-11-27T07:12:20.944Z,1014.8
2017-11-27T07:13:29.799Z,1014.73
2017-11-27T07:14:38.633Z,1014.75
2017-11-27T07:15:47.775Z,1014.74
2017-11-27T07:16:56.901Z,1014.75
2017-11-27T07:18:05.745Z,1014.76
2017-11-27T07:19:14.839Z,1014.69
2017-11-27T07:20:23.683Z,1014.71
2017-11-27T07:21:32.627Z,1014.67
2017-11-27T07:22:42.042Z,1014.6
2017-11-27T07:23:50.885Z,1014.63
2017-11-27T07:24:59.776Z,1014.53
2017-11-27T07:26:08.640Z,1014.56
2017-11-27T07:27:17.462Z,1014.51
2017-11-27T07:28:26.311Z,1014.52
2017-11-27T07:29:35.157Z,1014.56
2017-11-27T07:30:44.330Z,1014.49
2017-11-27T07:31:53.175Z,1014.51
2017-11-27T07:33:02.022Z,1014.49
2017-11-27T07:34:10.865Z,1014.46
2017-11-27T07:35:19.707Z,1014.43
2017-11-27T07:36:28.832Z,1014.43
2017-11-27T07:37:37.955Z,1014.46
2017-11-27T07:38:46.799Z,1014.45
2017-11-27T07:39:55.645Z,1014.38
2017-11-27T07:41:04.487Z,1014.42
2017-11-27T07:42:13.438Z,1014.35
2017-11-27T07:43:22.565Z,1014.35
2017-11-27T07:44:31.415Z,1014.55
2017-11-27T07:45:40.255Z,1014.35
2017-11-27T07:46:49.101Z,1014.34
2017-11-27T07:47:58.243Z,1014.31
2017-11-27T07:49:07.087Z,1014.24
2017-11-27T07:50:15.939Z,1014.25
2017-11-27T07:51:25.069Z,1014.25
2017-11-27T07:52:33.912Z,1014.26
2017-11-27T07:53:43.187Z,1014.1
2017-11-27T07:54:52.029Z,1014.08
2017-11-27T07:56:00.871Z,1014.08
2017-11-27T07:57:09.710Z,1014.09
2017-11-27T07:58:18.555Z,1014.06
2017-11-27T07:59:27.994Z,1013.97
2017-11-27T08:00:36.839Z,1014.01
2017-11-27T08:01:45.682Z,1013.94
2017-11-27T08:02:54.817Z,1013.96
2017-11-27T08:04:03.946Z,1013.81
2017-11-27T08:05:12.786Z,1013.89
2017-11-27T08:06:21.631Z,1013.85
2017-11-27T08:07:30.471Z,1013.84
2017-11-27T08:08:39.315Z,1013.86
2017-11-27T08:09:48.439Z,1013.77
2017-11-27T08:10:57.433Z,1013.71
2017-11-27T08:12:06.285Z,1013.67
2017-11-27T08:13:15.128Z,1013.66
2017-11-27T08:14:23.967Z,1013.63
2017-11-27T08:15:32.813Z,1013.61
2017-11-27T08:16:41.809Z,1013.61
2017-11-27T08:17:50.934Z,1013.53
2017-11-27T08:18:59.779Z,1013.53
2017-11-27T08:20:08.623Z,1013.51
2017-11-27T08:21:17.467Z,1013.45
2017-11-27T08:22:26.460Z,1013.47
2017-11-27T08:23:35.305Z,1013.43
2017-11-27T08:24:44.153Z,1013.46
2017-11-27T08:25:52.996Z,1013.42
2017-11-27T08:27:01.842Z,1013.36
2017-11-27T08:28:11.170Z,1013.34
2017-11-27T08:29:20.299Z,1013.33
2017-11-27T08:30:29.144Z,1013.31
2017-11-27T08:31:37.990Z,1013.19
2017-11-27T08:32:47.121Z,1013.23
2017-11-27T08:33:56.307Z,1013.14
2017-11-27T08:35:05.441Z,1013.06
2017-11-27T08:36:14.564Z,1013.07
2017-11-27T08:37:23.406Z,1012.99
2017-11-27T08:38:32.247Z,1013.06
2017-11-27T08:39:41.198Z,1013.01
2017-11-27T08:40:50.323Z,1012.95
2017-11-27T08:41:59.166Z,1012.97
2017-11-27T08:43:08.011Z,1012.91
2017-11-27T08:44:16.854Z,1012.94
2017-11-27T08:45:25.899Z,1012.87
2017-11-27T08:46:34.742Z,1012.89
2017-11-27T08:47:43.866Z,1012.82
2017-11-27T08:48:52.709Z,1012.8
2017-11-27T08:50:01.844Z,1012.71
2017-11-27T08:51:10.739Z,1012.75
2017-11-27T08:52:19.579Z,1012.7
2017-11-27T08:53:28.421Z,1012.71
2017-11-27T08:54:37.265Z,1012.62
2017-11-27T08:55:46.114Z,1012.69
2017-11-27T08:56:55.052Z,1012.61
2017-11-27T08:58:03.897Z,1012.62
2017-11-27T08:59:12.743Z,1012.53
2017-11-27T09:00:21.588Z,1012.47
2017-11-27T09:01:30.429Z,1012.43
2017-11-27T09:02:39.323Z,1012.32
2017-11-27T09:03:48.165Z,1012.45
2017-11-27T09:04:57.009Z,1012.37
2017-11-27T09:06:05.853Z,1012.27
2017-11-27T09:07:14.697Z,1012.24
2017-11-27T09:08:23.737Z,1012.25
2017-11-27T09:09:32.581Z,1012.16
2017-11-27T09:10:41.427Z,1012.17
2017-11-27T09:11:50.559Z,1012.1
2017-11-27T09:12:59.456Z,1012.09
2017-11-27T09:14:08.940Z,1012.08
2017-11-27T09:15:17.784Z,1012.12
2017-11-27T09:16:26.625Z,1012.1
2017-11-27T09:17:35.467Z,1012.11
2017-11-27T09:18:44.310Z,1012.18
2017-11-27T09:19:53.252Z,1012.08
2017-11-27T09:21:02.657Z,1012.14
2017-11-27T09:22:11.502Z,1012.04
2017-11-27T09:23:20.344Z,1012.04
2017-11-27T09:24:29.187Z,1011.92
2017-11-27T09:25:38.139Z,1011.99
2017-11-27T09:26:46.975Z,1011.91
2017-11-27T09:27:56.141Z,1011.96
2017-11-27T09:29:04.940Z,1011.91
2017-11-27T09:30:13.789Z,1011.89
2017-11-27T09:31:23.061Z,1011.84
2017-11-27T09:32:31.902Z,1011.8
2017-11-27T09:33:41.031Z,1011.75
2017-11-27T09:34:49.870Z,1011.7
2017-11-27T09:35:58.713Z,1011.75
2017-11-27T09:37:07.656Z,1011.68
2017-11-27T09:38:16.500Z,1011.62
2017-11-27T09:39:25.630Z,1011.56
2017-11-27T09:40:34.476Z,1011.35
2017-11-27T09:41:43.322Z,1011.51
2017-11-27T09:42:52.367Z,1011.61
2017-11-27T09:44:01.213Z,1011.54
2017-11-27T09:45:10.052Z,1011.58
2017-11-27T09:46:18.893Z,1011.5
2017-11-27T09:47:27.733Z,1011.39
2017-11-27T09:48:36.910Z,1011.39
2017-11-27T09:49:45.752Z,1011.35
2017-11-27T09:50:54.596Z,1011.34
2017-11-27T09:52:03.437Z,1011.28
2017-11-27T09:53:12.282Z,1011.21
2017-11-27T09:54:21.225Z,1011.25
2017-11-27T09:55:30.353Z,1011.27
2017-11-27T09:56:39.197Z,1011.19
2017-11-27T09:57:48.043Z,1011.19
2017-11-27T09:58:56.882Z,1011.15
2017-11-27T10:00:05.927Z,1011.08
2017-11-27T10:01:14.772Z,1011.04
2017-11-27T10:02:23.615Z,1011.07
2017-11-27T10:03:32.457Z,1011.02
2017-11-27T10:04:41.302Z,1010.99
2017-11-27T10:05:50.506Z,1010.95
2017-11-27T10:06:59.340Z,1011.03
2017-11-27T10:08:08.182Z,1010.83
2017-11-27T10:09:17.024Z,1010.77
2017-11-27T10:10:25.868Z,1010.84
2017-11-27T10:11:34.861Z,1010.82
2017-11-27T10:12:43.701Z,1010.83
2017-11-27T10:13:52.548Z,1010.69
2017-11-27T10:15:01.385Z,1010.78
2017-11-27T10:16:10.231Z,1010.62
2017-11-27T10:17:19.279Z,1010.71
2017-11-27T10:18:28.121Z,1010.64
2017-11-27T10:19:36.964Z,1010.62
2017-11-27T10:20:45.811Z,1010.56
2017-11-27T10:21:54.654Z,1010.58
2017-11-27T10:23:03.976Z,1010.62
2017-11-27T10:24:12.822Z,1010.52
2017-11-27T10:25:21.666Z,1010.46
2017-11-27T10:26:30.503Z,1010.46
2017-11-27T10:27:39.346Z,1010.43
2017-11-27T10:28:48.391Z,1010.35
2017-11-27T10:29:57.233Z,1010.33
2017-11-27T10:31:06.075Z,1010.35
2017-11-27T10:32:15.202Z,1010.21
2017-11-27T10:33:24.042Z,1010.24
2017-11-27T10:34:33.034Z,1010.25
2017-11-27T10:35:41.878Z,1010.14
2017-11-27T10:36:50.724Z,1010.16
2017-11-27T10:37:59.567Z,1010.08
2017-11-27T10:39:08.411Z,1010.06
2017-11-27T10:40:17.505Z,1010.07
2017-11-27T10:41:26.348Z,1009.94
2017-11-27T10:42:35.193Z,1010
2017-11-27T10:43:44.037Z,1009.94
2017-11-27T10:44:52.884Z,1009.86
2017-11-27T10:46:02.158Z,1009.83
2017-11-27T10:47:11.002Z,1009.79
2017-11-27T10:48:19.846Z,1009.81
2017-11-27T10:49:28.692Z,1009.8
2017-11-27T10:50:37.534Z,1009.73
2017-11-27T10:51:46.380Z,1009.69
2017-11-27T10:52:55.225Z,1009.64
2017-11-27T10:54:04.066Z,1009.6
2017-11-27T10:55:12.909Z,1009.59
2017-11-27T10:56:21.753Z,1009.47
2017-11-27T10:57:31.029Z,1009.45
2017-11-27T10:58:39.873Z,1009.42
2017-11-27T10:59:49.006Z,1009.31
2017-11-27T11:00:58.128Z,1009.3
2017-11-27T11:02:07.257Z,1009.29
2017-11-27T11:03:16.296Z,1009.22
2017-11-27T11:04:25.143Z,1009.17
2017-11-27T11:05:33.982Z,1009.24
2017-11-27T11:06:42.827Z,1009.11
2017-11-27T11:07:51.669Z,1009.05
2017-11-27T11:09:00.917Z,1009.04
2017-11-27T11:10:10.041Z,1009.03
2017-11-27T11:11:18.883Z,1009.08
2017-11-27T11:12:27.727Z,1009.01
2017-11-27T11:13:36.849Z,1009.02
2017-11-27T11:14:45.795Z,1008.87
2017-11-27T11:15:54.639Z,1008.79
2017-11-27T11:17:03.481Z,1008.75
2017-11-27T11:18:12.324Z,1008.78
2017-11-27T11:19:21.167Z,1008.72
2017-11-27T11:20:30.008Z,1008.78
2017-11-27T11:21:38.852Z,1008.69
2017-11-27T11:22:47.697Z,1008.62
2017-11-27T11:23:56.540Z,1008.76
2017-11-27T11:25:05.384Z,1008.68
2017-11-27T11:26:14.378Z,1008.61
2017-11-27T11:27:23.221Z,1008.61
2017-11-27T11:28:32.066Z,1008.43
2017-11-27T11:29:40.906Z,1008.6
2017-11-27T11:30:49.749Z,1008.51
2017-11-27T11:31:58.739Z,1008.53
2017-11-27T11:33:07.580Z,1008.48
2017-11-27T11:34:16.423Z,1008.47
2017-11-27T11:35:25.268Z,1008.42
2017-11-27T11:36:34.394Z,1008.35
2017-11-27T11:37:43.399Z,1008.34
2017-11-27T11:38:52.237Z,1008.24
2017-11-27T11:40:01.085Z,1008.37
2017-11-27T11:41:10.500Z,1008.35
2017-11-27T11:42:19.335Z,1008.31
2017-11-27T11:43:28.275Z,1008.25
2017-11-27T11:44:37.120Z,1008.22
2017-11-27T11:45:45.963Z,1008.12
2017-11-27T11:46:54.811Z,1008.11
2017-11-27T11:48:03.647Z,1008.06
2017-11-27T11:49:12.788Z,1008.06
2017-11-27T11:50:21.631Z,1008.01
2017-11-27T11:51:30.478Z,1007.94
2017-11-27T11:52:39.317Z,1007.95
2017-11-27T11:53:48.159Z,1007.97
2017-11-27T11:54:57.002Z,1007.96
2017-11-27T11:56:06.146Z,1007.99
2017-11-27T11:57:14.988Z,1007.89
2017-11-27T11:58:23.833Z,1007.88
2017-11-27T11:59:32.954Z,1007.88
2017-11-27T12:00:41.945Z,1007.77
2017-11-27T12:01:50.803Z,1007.82
2017-11-27T12:02:59.932Z,1007.82
2017-11-27T12:04:08.774Z,1007.83
2017-11-27T12:05:17.619Z,1007.76
2017-11-27T12:06:26.561Z,1007.72
2017-11-27T12:07:35.408Z,1007.81
2017-11-27T12:08:44.256Z,1007.66
2017-11-27T12:09:53.384Z,1007.8
2017-11-27T12:11:02.230Z,1007.78
2017-11-27T12:12:11.226Z,1007.7
2017-11-27T12:13:20.067Z,1007.69
2017-11-27T12:14:28.911Z,1007.65
2017-11-27T12:15:37.754Z,1007.6
2017-11-27T12:16:46.597Z,1007.66
2017-11-27T12:17:55.767Z,1007.58
2017-11-27T12:19:04.612Z,1007.56
2017-11-27T12:20:13.458Z,1007.5
2017-11-27T12:21:22.302Z,1007.53
2017-11-27T12:22:31.153Z,1007.55
2017-11-27T12:23:40.090Z,1007.48
2017-11-27T12:24:48.937Z,1007.43
2017-11-27T12:25:57.776Z,1007.44
2017-11-27T12:27:06.897Z,1007.36
2017-11-27T12:28:15.742Z,1007.38
2017-11-27T12:29:24.583Z,1007.55
2017-11-27T12:30:33.423Z,1007.33
2017-11-27T12:31:42.269Z,1007.27
2017-11-27T12:32:51.112Z,1007.25
2017-11-27T12:34:00.236Z,1007.26
2017-11-27T12:35:09.079Z,1007.23
2017-11-27T12:36:17.926Z,1007.3
2017-11-27T12:37:26.769Z,1007.2
2017-11-27T12:38:35.611Z,1007.13
2017-11-27T12:39:44.453Z,1007.17
2017-11-27T12:40:53.300Z,1007.15
2017-11-27T12:42:02.146Z,1007.17
2017-11-27T12:43:10.988Z,1007.11
2017-11-27T12:44:19.831Z,1007.07
2017-11-27T12:45:28.953Z,1007.06
2017-11-27T12:46:37.916Z,1007
2017-11-27T12:47:46.742Z,1007.01
2017-11-27T12:48:55.582Z,1007
2017-11-27T12:50:04.426Z,1006.95
2017-11-27T12:51:13.273Z,1006.99
2017-11-27T12:52:22.216Z,1006.97
2017-11-27T12:53:31.060Z,1006.95
2017-11-27T12:54:39.904Z,1006.85
2017-11-27T12:55:48.750Z,1006.92
2017-11-27T12:56:57.590Z,1006.81
2017-11-27T12:58:06.434Z,1006.89
2017-11-27T12:59:15.278Z,1006.89
2017-11-27T13:00:24.404Z,1006.7
2017-11-27T13:01:33.251Z,1006.73
2017-11-27T13:02:42.404Z,1006.67
2017-11-27T13:03:51.687Z,1006.69
2017-11-27T13:05:00.523Z,1006.69
2017-11-27T13:06:09.584Z,1006.72
2017-11-27T13:07:18.485Z,1006.58
2017-11-27T13:08:27.623Z,1006.64
2017-11-27T13:09:36.586Z,1006.51
2017-11-27T13:10:45.436Z,1006.6
2017-11-27T13:11:54.289Z,1006.45
2017-11-27T13:13:03.134Z,1006.58
2017-11-27T13:14:12.005Z,1006.54
2017-11-27T13:15:21.208Z,1006.49
2017-11-27T13:16:30.365Z,1006.46
2017-11-27T13:17:39.259Z,1006.41
2017-11-27T13:18:48.422Z,1006.41
2017-11-27T13:19:57.526Z,1006.39
2017-11-27T13:21:06.686Z,1006.4
2017-11-27T13:22:15.623Z,1006.39
2017-11-27T13:23:24.467Z,1006.38
2017-11-27T13:24:33.904Z,1006.36
2017-11-27T13:25:42.823Z,1006.3
2017-11-27T13:26:51.668Z,1006.25
2017-11-27T13:28:00.612Z,1006.21
2017-11-27T13:29:09.829Z,1006.16
2017-11-27T13:30:19.299Z,1006.18
2017-11-27T13:31:28.407Z,1006.13
2017-11-27T13:32:37.261Z,1006.2
2017-11-27T13:33:46.142Z,1006.12
2017-11-27T13:34:55.272Z,1006.03
2017-11-27T13:36:04.738Z,1006
2017-11-27T13:37:13.899Z,1006.06
2017-11-27T13:38:23.290Z,1006.18
2017-11-27T13:39:32.465Z,1006.11
2017-11-27T13:40:41.310Z,1006.01
2017-11-27T13:41:50.186Z,1006.08
2017-11-27T13:42:59.621Z,1006.08
2017-11-27T13:44:08.830Z,1005.98
2017-11-27T13:45:17.678Z,1006.01
2017-11-27T13:46:26.753Z,1005.97
2017-11-27T13:47:35.598Z,1006.07
2017-11-27T13:48:44.481Z,1005.93
2017-11-27T13:49:53.645Z,1005.96
2017-11-27T13:51:02.862Z,1005.99
2017-11-27T13:52:12.002Z,1005.93
2017-11-27T13:53:20.896Z,1005.92
2017-11-27T13:54:29.757Z,1005.95
2017-11-27T13:55:38.788Z,1005.88
2017-11-27T13:56:47.948Z,1005.89